createdAt,value
2019-03-24T00:02:51.955Z,16.77
2019-03-24T00:07:56.807Z,17.07
2019-03-24T00:12:59.613Z,17.30
2019-03-24T00:18:02.557Z,17.97
2019-03-24T00:23:05.723Z,17.07
2019-03-24T00:28:08.968Z,16.63
2019-03-24T00:33:11.864Z,16.47
2019-03-24T00:38:14.770Z,17.93
2019-03-24T00:43:17.655Z,18.27
2019-03-24T00:48:20.567Z,19.97
2019-03-24T00:53:23.467Z,18.67
2019-03-24T00:58:26.772Z,20.83
2019-03-24T01:03:30.423Z,20.00
2019-03-24T01:08:33.336Z,19.53
2019-03-24T01:13:36.264Z,21.77
2019-03-24T01:18:39.057Z,22.87
2019-03-24T01:23:42.070Z,20.33
2019-03-24T01:28:46.286Z,20.23
2019-03-24T01:33:49.624Z,20.33
2019-03-24T01:38:52.683Z,21.57
2019-03-24T01:43:55.747Z,21.43
2019-03-24T01:48:58.739Z,20.10
2019-03-24T01:54:01.846Z,22.30
2019-03-24T01:59:05.543Z,21.23
2019-03-24T02:04:08.455Z,26.07
2019-03-24T02:09:12.540Z,23.57
2019-03-24T02:14:15.431Z,23.27
2019-03-24T02:19:18.231Z,23.83
2019-03-24T02:24:21.061Z,22.27
2019-03-24T02:29:25.433Z,39.87
2019-03-24T02:34:28.368Z,27.03
2019-03-24T02:39:31.346Z,40.17
2019-03-24T02:44:34.258Z,37.77
2019-03-24T02:49:37.152Z,40.50
2019-03-24T02:54:40.059Z,33.27
2019-03-24T02:59:43.161Z,29.97
2019-03-24T03:04:47.059Z,28.80
2019-03-24T03:09:50.264Z,37.63
2019-03-24T03:14:53.130Z,25.30
2019-03-24T03:19:56.016Z,24.27
2019-03-24T03:24:59.411Z,40.10
2019-03-24T03:30:02.643Z,36.17
2019-03-24T03:35:07.939Z,38.23
2019-03-24T03:40:11.099Z,35.73
2019-03-24T03:45:23.177Z,30.40
2019-03-24T03:50:26.088Z,49.30
2019-03-24T03:55:28.963Z,38.67
2019-03-24T04:00:33.380Z,40.40
2019-03-24T04:05:37.855Z,42.33
2019-03-24T04:10:40.839Z,33.23
2019-03-24T04:15:43.708Z,33.50
2019-03-24T04:20:46.950Z,31.03
2019-03-24T04:25:49.745Z,39.53
2019-03-24T04:30:52.645Z,33.73
2019-03-24T04:35:55.659Z,34.13
2019-03-24T04:40:58.567Z,34.17
2019-03-24T04:46:01.595Z,35.90
2019-03-24T04:51:04.531Z,36.23
2019-03-24T04:56:07.455Z,38.13
2019-03-24T05:01:10.407Z,38.97
2019-03-24T05:06:15.275Z,36.50
2019-03-24T05:11:18.331Z,45.63
2019-03-24T05:16:21.239Z,51.80
2019-03-24T05:21:24.266Z,51.27
2019-03-24T05:26:27.070Z,47.70
2019-03-24T05:31:30.007Z,39.73
2019-03-24T05:36:33.795Z,39.60
2019-03-24T05:41:36.860Z,31.40
2019-03-24T05:46:39.675Z,42.33
2019-03-24T05:51:42.571Z,39.37
2019-03-24T05:56:45.458Z,39.93
2019-03-24T06:01:49.286Z,34.87
2019-03-24T06:06:52.183Z,39.53
2019-03-24T06:11:55.066Z,38.30
2019-03-24T06:16:58.130Z,33.40
2019-03-24T06:22:01.107Z,48.50
2019-03-24T06:27:04.016Z,48.60
2019-03-24T06:32:07.023Z,47.23
2019-03-24T06:37:10.364Z,46.87
2019-03-24T06:42:13.427Z,49.83
2019-03-24T06:47:16.736Z,46.93
2019-03-24T06:52:19.818Z,45.10
2019-03-24T06:57:23.035Z,45.03
2019-03-24T07:02:26.051Z,47.30
2019-03-24T07:07:29.087Z,44.30
2019-03-24T07:12:32.489Z,43.63
2019-03-24T07:17:37.615Z,42.00
2019-03-24T07:22:40.137Z,42.27
2019-03-24T07:27:43.039Z,42.47
2019-03-24T07:32:45.951Z,42.27
2019-03-24T07:37:50.334Z,41.67
2019-03-24T07:42:53.347Z,39.33
2019-03-24T07:47:57.188Z,37.33
2019-03-24T07:53:00.197Z,36.33
2019-03-24T07:58:03.346Z,35.33
2019-03-24T08:03:08.018Z,38.73
2019-03-24T08:08:11.079Z,35.93
2019-03-24T08:13:13.867Z,35.23
2019-03-24T08:18:16.656Z,33.73
2019-03-24T08:23:19.527Z,36.23
2019-03-24T08:28:23.232Z,35.90
2019-03-24T08:33:26.162Z,31.40
2019-03-24T08:38:29.355Z,28.13
2019-03-24T08:43:32.247Z,31.67
2019-03-24T08:48:40.807Z,33.10
2019-03-24T08:53:39.958Z,20.63
2019-03-24T08:58:43.007Z,23.77
2019-03-24T09:03:45.880Z,21.13
2019-03-24T09:08:49.755Z,31.70
2019-03-24T09:13:52.847Z,34.03
2019-03-24T09:18:56.072Z,32.77
2019-03-24T09:23:59.254Z,31.47
2019-03-24T09:29:02.171Z,31.40
2019-03-24T09:34:05.465Z,30.43
2019-03-24T09:39:08.585Z,31.90
2019-03-24T09:44:11.556Z,29.83
2019-03-24T09:49:14.471Z,29.00
2019-03-24T09:54:17.269Z,31.50
2019-03-24T09:59:20.259Z,30.20
2019-03-24T10:04:23.093Z,28.10
2019-03-24T10:09:26.668Z,28.43
2019-03-24T10:14:29.684Z,28.27
2019-03-24T10:19:32.620Z,28.87
2019-03-24T10:24:35.519Z,29.07
2019-03-24T10:29:38.427Z,29.43
2019-03-24T10:34:41.364Z,28.50
2019-03-24T10:39:44.636Z,29.63
2019-03-24T10:44:47.663Z,28.20
2019-03-24T10:49:51.019Z,30.40
2019-03-24T11:00:42.810Z,27.43
2019-03-24T11:05:46.042Z,28.30
2019-03-24T11:10:49.479Z,28.90
2019-03-24T11:15:52.416Z,28.10
2019-03-24T11:20:55.341Z,26.90
2019-03-24T11:25:58.507Z,23.93
2019-03-24T11:31:01.853Z,24.57
2019-03-24T11:36:06.474Z,25.47
2019-03-24T11:41:10.003Z,24.67
2019-03-24T11:46:13.252Z,23.10
2019-03-24T11:51:16.080Z,23.57
2019-03-24T11:56:19.111Z,24.00
2019-03-24T12:01:22.001Z,23.13
2019-03-24T12:06:24.987Z,23.17
2019-03-24T12:11:28.448Z,24.07
2019-03-24T12:16:31.536Z,24.90
2019-03-24T12:21:35.044Z,23.23
2019-03-24T12:26:37.991Z,21.93
2019-03-24T12:31:40.891Z,21.87
2019-03-24T12:36:43.996Z,23.40
2019-03-24T12:41:47.043Z,20.70
2019-03-24T12:46:50.515Z,23.93
2019-03-24T12:51:53.702Z,21.77
2019-03-24T12:56:56.899Z,21.77
2019-03-24T13:02:00.416Z,22.00
2019-03-24T13:07:03.345Z,13.03
2019-03-24T13:12:06.478Z,20.63
2019-03-24T13:17:09.678Z,21.93
2019-03-24T13:22:12.960Z,21.37
2019-03-24T13:27:16.048Z,20.07
2019-03-24T13:32:22.303Z,19.90
2019-03-24T13:37:25.889Z,18.83
2019-03-24T13:42:29.055Z,21.30
2019-03-24T13:47:32.375Z,17.37
2019-03-24T13:52:35.710Z,18.20
2019-03-24T13:57:40.783Z,17.17
2019-03-24T14:02:43.951Z,18.07
2019-03-24T14:07:46.881Z,17.63
2019-03-24T14:12:50.055Z,17.33
2019-03-24T14:17:53.023Z,13.63
2019-03-24T14:22:56.239Z,18.10
2019-03-24T14:27:59.658Z,11.77
2019-03-24T14:33:02.993Z,14.20
2019-03-24T14:38:06.304Z,17.17
2019-03-24T14:43:09.219Z,17.17
2019-03-24T14:48:12.378Z,18.47
2019-03-24T14:53:15.575Z,17.57
2019-03-24T14:58:21.644Z,21.07
2019-03-24T15:03:26.166Z,19.35
2019-03-24T15:08:29.091Z,20.83
2019-03-24T15:13:33.304Z,20.97
2019-03-24T15:18:36.143Z,19.70
2019-03-24T15:23:39.315Z,19.62
2019-03-24T15:28:42.704Z,19.63
2019-03-24T15:33:45.654Z,20.87
2019-03-24T15:38:48.633Z,21.02
2019-03-24T15:43:54.933Z,22.43
2019-03-24T15:49:01.364Z,21.43
2019-03-24T15:54:09.696Z,23.23
2019-03-24T15:59:15.747Z,20.13
2019-03-24T16:04:19.795Z,21.43
2019-03-24T16:09:29.376Z,23.37
2019-03-24T16:14:36.502Z,23.27
2019-03-24T16:19:39.858Z,22.43
2019-03-24T16:24:43.024Z,22.00
2019-03-24T16:29:46.717Z,24.07
2019-03-24T16:34:49.691Z,23.77
2019-03-24T16:39:52.670Z,24.40
2019-03-24T16:44:55.664Z,25.07
2019-03-24T16:49:59.172Z,24.93
2019-03-24T16:55:02.751Z,23.20
2019-03-24T17:00:06.958Z,24.03
2019-03-24T17:05:11.159Z,10.83
2019-03-24T17:10:14.107Z,25.10
2019-03-24T17:15:17.088Z,25.77
2019-03-24T17:20:20.115Z,25.40
2019-03-24T17:25:23.129Z,24.07
2019-03-24T17:30:26.430Z,26.23
2019-03-24T17:35:30.198Z,20.50
2019-03-24T17:40:38.754Z,29.43
2019-03-24T17:45:38.131Z,26.77
2019-03-24T17:50:42.707Z,22.60
2019-03-24T17:55:45.783Z,29.53
2019-03-24T18:00:52.067Z,27.43
2019-03-24T18:05:54.922Z,27.87
2019-03-24T18:10:57.870Z,29.73
2019-03-24T18:16:01.057Z,29.57
2019-03-24T18:27:15.559Z,29.57
2019-03-24T18:32:23.090Z,28.60
2019-03-24T18:37:25.908Z,28.70
2019-03-24T18:42:37.581Z,29.83
2019-03-24T18:47:41.031Z,28.13
2019-03-24T18:52:44.135Z,29.73
2019-03-24T18:57:47.193Z,28.77
2019-03-24T19:02:54.806Z,28.97
2019-03-24T19:07:58.505Z,28.17
2019-03-24T19:13:01.464Z,28.40
2019-03-24T19:18:06.009Z,29.50
2019-03-24T19:23:12.246Z,30.87
2019-03-24T19:28:17.846Z,29.50
2019-03-24T19:33:21.644Z,30.23
2019-03-24T19:38:26.747Z,30.40
2019-03-24T19:43:33.219Z,30.03
2019-03-24T19:48:37.408Z,31.50
2019-03-24T19:53:40.432Z,29.40
2019-03-24T19:58:51.686Z,33.50
2019-03-24T20:03:55.270Z,31.33
2019-03-24T20:08:58.894Z,31.90
2019-03-24T20:14:01.999Z,32.63
2019-03-24T20:19:05.864Z,30.27
2019-03-24T20:24:09.161Z,31.23
2019-03-24T20:29:18.855Z,29.30
2019-03-24T20:34:27.438Z,31.63
2019-03-24T20:39:31.063Z,30.40
2019-03-24T20:44:33.976Z,30.37
2019-03-24T20:49:40.994Z,26.83
2019-03-24T20:54:47.459Z,28.37
2019-03-24T20:59:56.253Z,26.30
2019-03-24T21:04:59.640Z,30.17
2019-03-24T21:10:09.658Z,27.33
2019-03-24T21:15:15.936Z,28.23
2019-03-24T21:20:18.889Z,28.87
2019-03-24T21:25:23.516Z,27.30
2019-03-24T21:30:34.833Z,29.40
2019-03-24T21:35:40.020Z,30.47
2019-03-24T21:40:43.093Z,31.10
2019-03-24T21:45:46.094Z,29.60
2019-03-24T21:50:49.140Z,29.03
2019-03-24T21:55:52.032Z,28.00
2019-03-24T22:00:54.957Z,29.37
2019-03-24T22:05:58.396Z,30.43
2019-03-24T22:11:01.346Z,29.30
2019-03-24T22:16:04.279Z,29.47
2019-03-24T22:21:07.197Z,31.27
2019-03-24T22:26:10.151Z,31.80
2019-03-24T22:31:13.269Z,32.97
2019-03-24T22:36:16.632Z,32.30
2019-03-24T22:41:19.595Z,32.43
2019-03-24T22:46:23.859Z,32.00
2019-03-24T22:51:26.763Z,31.00
2019-03-24T22:56:30.197Z,29.47
2019-03-24T23:01:33.273Z,34.60
2019-03-24T23:06:36.522Z,31.60
2019-03-24T23:11:39.463Z,32.17
2019-03-24T23:16:43.640Z,31.23
2019-03-24T23:21:46.497Z,30.67
2019-03-24T23:26:49.423Z,29.70
2019-03-24T23:31:52.704Z,29.97
2019-03-24T23:36:55.776Z,31.40
2019-03-24T23:41:58.856Z,32.07
2019-03-24T23:47:01.898Z,30.40
2019-03-24T23:52:04.831Z,29.53
2019-03-24T23:57:07.745Z,28.70
